Time;durP1;ratioP1;P1;durP2;ratioP2;P2;SDS_P1;SDS_P2;PMS_P1;PMS_P2;Temp;Humidity;BMP_temperature;BMP_pressure;BME280_temperature;BME280_humidity;BME280_pressure;Samples;Min_cycle;Max_cycle;Signal;HPM_P1;HPM_P2
2022/10/10 00:00:53;;;;;;;45.37;21.63;;;;;;;4.49;100.00;101026.91;4158654;28;21978;-77
2022/10/10 00:03:19;;;;;;;41.37;20.97;;;;;;;4.45;100.00;101020.16;4164826;28;24590;-74
2022/10/10 00:05:46;;;;;;;45.80;20.67;;;;;;;4.50;100.00;101028.63;4156813;28;20226;-73
2022/10/10 00:08:13;;;;;;;44.63;20.97;;;;;;;4.44;100.00;101031.59;4159142;28;20417;-72
2022/10/10 00:10:39;;;;;;;42.60;19.63;;;;;;;4.49;100.00;101026.91;4169159;28;20235;-74
2022/10/10 00:13:06;;;;;;;41.67;18.53;;;;;;;4.70;100.00;101031.84;4158042;28;20237;-74
2022/10/10 00:15:32;;;;;;;45.40;19.83;;;;;;;4.79;100.00;101028.66;4159010;28;20299;-73
2022/10/10 00:17:59;;;;;;;37.37;19.17;;;;;;;4.70;100.00;101023.94;4168518;28;20240;-75
2022/10/10 00:20:26;;;;;;;38.43;18.63;;;;;;;4.81;100.00;101024.13;4168007;28;20958;-75
2022/10/10 00:22:52;;;;;;;36.70;18.77;;;;;;;4.76;100.00;101023.56;4173917;28;24221;-73
2022/10/10 00:25:19;;;;;;;46.93;20.23;;;;;;;4.71;100.00;101020.38;4159749;28;21113;-72
2022/10/10 00:27:46;;;;;;;43.20;18.33;;;;;;;4.73;100.00;101026.38;4167515;28;21610;-76
2022/10/10 00:30:13;;;;;;;41.30;18.57;;;;;;;4.73;100.00;101027.25;4165869;28;20284;-72
2022/10/10 00:32:39;;;;;;;43.93;19.37;;;;;;;4.79;100.00;101029.50;4158861;28;20412;-71
2022/10/10 00:35:06;;;;;;;39.30;17.87;;;;;;;4.72;100.00;101027.31;4170614;28;20928;-75
2022/10/10 00:37:33;;;;;;;41.23;20.60;;;;;;;4.65;100.00;101026.84;4168621;28;20241;-75
2022/10/10 00:39:59;;;;;;;40.77;18.43;;;;;;;4.63;100.00;101019.00;4165506;28;20253;-74
2022/10/10 00:42:26;;;;;;;42.37;18.07;;;;;;;4.64;100.00;101026.00;4168822;28;20633;-74
2022/10/10 00:45:31;;;;;;;38.17;18.60;;;;;;;4.69;100.00;101023.09;4163611;28;20237;-74
2022/10/10 00:48:05;;;;;;;37.33;18.30;;;;;;;4.69;100.00;101022.25;4161795;28;20246;-72
2022/10/10 00:50:34;;;;;;;39.77;19.37;;;;;;;4.65;100.00;101017.13;4171844;28;20408;-74
2022/10/10 00:53:05;;;;;;;36.73;17.60;;;;;;;4.70;100.00;101010.75;4151473;28;22683;-72
2022/10/10 00:55:32;;;;;;;36.77;16.33;;;;;;;4.61;100.00;101012.16;4161966;28;20688;-73
2022/10/10 00:57:58;;;;;;;43.93;18.77;;;;;;;4.55;100.00;101010.75;4170143;28;21157;-75
2022/10/10 01:00:25;;;;;;;39.90;19.13;;;;;;;4.44;100.00;101005.25;4173254;28;21738;-73
2022/10/10 01:02:51;;;;;;;36.03;17.03;;;;;;;4.39;100.00;101004.69;4164297;28;20700;-73
2022/10/10 01:05:18;;;;;;;39.30;18.07;;;;;;;4.36;100.00;101013.63;4170304;28;21134;-72
2022/10/10 01:07:45;;;;;;;35.17;17.73;;;;;;;4.31;100.00;101012.19;4172425;28;20391;-73
2022/10/10 01:10:15;;;;;;;38.80;17.40;;;;;;;4.26;100.00;101014.25;4168607;28;20246;-72
2022/10/10 01:12:55;;;;;;;36.23;19.13;;;;;;;4.22;100.00;101019.69;4149817;28;21285;-75
2022/10/10 01:15:30;;;;;;;36.80;18.30;;;;;;;4.11;100.00;101019.47;4167231;28;21094;-76
2022/10/10 01:18:15;;;;;;;36.47;17.80;;;;;;;4.06;100.00;101013.63;4159337;28;20244;-74
2022/10/10 01:21:05;;;;;;;39.20;18.33;;;;;;;3.97;100.00;101014.16;4163478;28;20428;-72
2022/10/10 01:23:37;;;;;;;42.90;18.30;;;;;;;3.97;100.00;101022.91;4157255;28;20434;-74
2022/10/10 01:26:46;;;;;;;38.47;18.13;;;;;;;3.95;100.00;101027.41;4163105;28;20293;-75
2022/10/10 01:29:15;;;;;;;40.73;18.23;;;;;;;3.95;100.00;101026.56;4150381;28;20241;-74
2022/10/10 01:31:44;;;;;;;44.93;19.27;;;;;;;3.95;100.00;101021.28;4162934;28;20250;-71
2022/10/10 01:34:20;;;;;;;37.53;18.10;;;;;;;3.88;100.00;101033.13;4155560;28;20744;-73
2022/10/10 01:37:00;;;;;;;42.60;18.63;;;;;;;3.88;100.00;101031.31;4161588;28;20269;-73
2022/10/10 01:40:08;;;;;;;43.93;18.80;;;;;;;3.80;100.00;101023.88;4153826;28;23063;-73
2022/10/10 01:42:50;;;;;;;41.33;17.03;;;;;;;3.85;100.00;101028.03;4109170;29;20243;-74
2022/10/10 01:45:18;;;;;;;42.70;18.07;;;;;;;3.74;100.00;101023.38;4161597;28;23026;-74
2022/10/10 01:47:47;;;;;;;37.80;18.07;;;;;;;3.72;100.00;101019.97;4179198;28;20980;-73
2022/10/10 01:50:17;;;;;;;45.13;19.47;;;;;;;3.60;100.00;101016.25;4153779;28;20308;-76
2022/10/10 01:53:04;;;;;;;40.03;18.20;;;;;;;3.58;100.00;101018.09;4141871;29;20323;-74
2022/10/10 01:55:51;;;;;;;38.10;17.27;;;;;;;3.66;100.00;101015.91;4178649;28;20245;-73
2022/10/10 01:58:27;;;;;;;35.27;17.70;;;;;;;3.67;100.00;101008.84;4166621;28;23018;-72
2022/10/10 02:01:01;;;;;;;40.13;17.87;;;;;;;3.58;100.00;101012.84;4149435;28;20231;-71
2022/10/10 02:03:30;;;;;;;41.60;17.97;;;;;;;3.57;100.00;101005.91;4153014;28;20263;-74
2022/10/10 02:06:01;;;;;;;41.33;18.23;;;;;;;3.57;100.00;101008.53;4165725;28;20420;-72
2022/10/10 02:08:34;;;;;;;38.53;17.77;;;;;;;3.53;100.00;101007.84;4161176;28;20241;-75
2022/10/10 02:11:08;;;;;;;36.73;17.20;;;;;;;3.55;100.00;101020.91;4155242;28;20342;-74
2022/10/10 02:13:52;;;;;;;38.90;18.13;;;;;;;3.54;100.00;101016.59;4157877;28;20280;-76
2022/10/10 02:16:23;;;;;;;39.33;17.67;;;;;;;3.60;100.00;101010.97;4158868;29;20271;-74
2022/10/10 02:18:50;;;;;;;42.47;18.40;;;;;;;3.56;100.00;101015.56;4156137;29;20239;-75
2022/10/10 02:21:17;;;;;;;39.53;17.97;;;;;;;3.72;100.00;101019.97;4155004;28;21593;-72
2022/10/10 02:23:46;;;;;;;39.13;18.70;;;;;;;3.74;100.00;101013.69;4161107;28;20341;-72
2022/10/10 02:26:15;;;;;;;36.67;18.03;;;;;;;3.77;100.00;101021.41;4163576;28;20803;-75
2022/10/10 02:28:58;;;;;;;43.73;18.90;;;;;;;3.79;100.00;101022.19;4165153;28;20234;-75
2022/10/10 02:31:47;;;;;;;49.50;20.47;;;;;;;3.86;100.00;101012.13;4155701;28;20234;-72
2022/10/10 02:34:31;;;;;;;46.53;19.30;;;;;;;3.98;100.00;100994.78;4176179;28;20234;-75
2022/10/10 02:37:01;;;;;;;38.70;18.97;;;;;;;4.00;100.00;100992.91;4164323;28;22269;-75
2022/10/10 02:39:32;;;;;;;46.63;19.07;;;;;;;3.99;100.00;100985.97;4155294;28;20350;-72
2022/10/10 02:41:58;;;;;;;42.83;19.53;;;;;;;4.03;100.00;100987.47;4164217;29;20306;-73
2022/10/10 02:44:25;;;;;;;47.93;19.87;;;;;;;4.00;100.00;100983.25;4154607;28;25637;-73
2022/10/10 02:46:52;;;;;;;39.73;18.87;;;;;;;4.00;100.00;100987.63;4167253;29;22306;-73
2022/10/10 02:49:26;;;;;;;44.87;19.03;;;;;;;4.09;100.00;100995.00;4158163;28;20310;-75
2022/10/10 02:51:53;;;;;;;47.47;20.00;;;;;;;4.01;100.00;100994.63;4164571;28;21163;-75
2022/10/10 02:54:19;;;;;;;41.13;19.67;;;;;;;4.00;100.00;100987.63;4167394;28;21838;-72
2022/10/10 02:56:46;;;;;;;40.07;19.30;;;;;;;4.02;100.00;100980.50;4152877;28;21170;-72
2022/10/10 02:59:12;;;;;;;41.37;19.60;;;;;;;4.09;100.00;100981.00;4168223;28;20239;-74
2022/10/10 03:01:39;;;;;;;43.67;20.47;;;;;;;4.01;100.00;100984.09;4171401;28;23498;-72
2022/10/10 03:04:06;;;;;;;45.43;20.33;;;;;;;3.98;100.00;100981.59;4161227;28;20284;-74
2022/10/10 03:06:32;;;;;;;43.33;20.50;;;;;;;4.01;100.00;100987.56;4158515;28;20305;-73
2022/10/10 03:08:59;;;;;;;51.20;20.33;;;;;;;4.02;100.00;100985.78;4151467;28;20234;-73
2022/10/10 03:11:25;;;;;;;49.30;20.20;;;;;;;4.06;100.00;100989.09;4156067;28;21807;-73
2022/10/10 03:13:52;;;;;;;44.83;21.30;;;;;;;4.05;100.00;100995.28;4156169;28;21434;-72
2022/10/10 03:16:18;;;;;;;43.50;19.93;;;;;;;4.09;100.00;100992.38;4170872;28;20239;-72
2022/10/10 03:18:45;;;;;;;39.47;20.20;;;;;;;4.06;100.00;100987.28;4157125;28;20308;-75
2022/10/10 03:21:12;;;;;;;48.43;19.13;;;;;;;4.10;100.00;100994.09;4149476;28;20864;-71
2022/10/10 03:23:39;;;;;;;40.70;19.30;;;;;;;4.19;100.00;100988.28;4163829;28;20230;-72
2022/10/10 03:26:05;;;;;;;47.57;20.80;;;;;;;4.16;100.00;100991.06;4172644;28;20251;-73
2022/10/10 03:28:32;;;;;;;40.30;18.90;;;;;;;4.21;100.00;100996.06;4154233;28;20433;-73
2022/10/10 03:30:58;;;;;;;46.23;18.93;;;;;;;4.09;100.00;100991.53;4163989;28;21279;-74
2022/10/10 03:33:25;;;;;;;45.13;19.77;;;;;;;4.07;100.00;100988.97;4158817;28;20232;-71
2022/10/10 03:35:52;;;;;;;43.13;18.93;;;;;;;4.21;100.00;100988.16;4173774;28;20257;-72
2022/10/10 03:38:18;;;;;;;40.40;18.40;;;;;;;4.11;100.00;100985.22;4163229;28;20238;-73
2022/10/10 03:40:45;;;;;;;44.10;18.87;;;;;;;4.13;100.00;100986.00;4147573;28;20323;-71
2022/10/10 03:43:13;;;;;;;42.33;18.20;;;;;;;4.22;100.00;100987.25;4164122;28;20297;-72
2022/10/10 03:45:44;;;;;;;37.23;18.43;;;;;;;4.21;100.00;100985.53;4147089;28;20235;-72
2022/10/10 03:48:11;;;;;;;38.53;17.73;;;;;;;4.21;100.00;100986.41;4175933;28;20515;-74
2022/10/10 03:50:38;;;;;;;42.40;19.20;;;;;;;4.21;100.00;100989.03;4162966;28;21376;-72
2022/10/10 03:53:05;;;;;;;40.13;17.70;;;;;;;4.29;100.00;100988.59;4154323;28;23783;-75
2022/10/10 03:55:31;;;;;;;47.83;18.77;;;;;;;4.35;100.00;100982.94;4154294;28;20239;-71
2022/10/10 03:57:57;;;;;;;36.67;18.37;;;;;;;4.34;100.00;100981.25;4156773;28;20285;-72
2022/10/10 04:00:25;;;;;;;45.00;18.40;;;;;;;4.34;100.00;100986.50;4159801;28;20241;-71
2022/10/10 04:02:52;;;;;;;43.00;18.57;;;;;;;4.31;100.00;100991.09;4159112;28;20231;-71
2022/10/10 04:05:19;;;;;;;43.47;19.37;;;;;;;4.38;100.00;100985.41;4164573;28;20298;-72
2022/10/10 04:07:45;;;;;;;42.00;18.43;;;;;;;4.34;100.00;100975.13;4154588;28;20371;-75
2022/10/10 04:10:12;;;;;;;42.90;18.07;;;;;;;4.39;100.00;100980.97;4166122;28;20316;-74
2022/10/10 04:12:39;;;;;;;41.83;19.00;;;;;;;4.31;100.00;100981.44;4162241;28;20951;-74
2022/10/10 04:15:06;;;;;;;38.97;18.60;;;;;;;4.42;100.00;100983.41;4169135;28;21109;-72
2022/10/10 04:17:32;;;;;;;34.73;16.67;;;;;;;4.33;100.00;100981.31;4163334;28;21307;-71
2022/10/10 04:19:59;;;;;;;46.37;18.23;;;;;;;4.32;100.00;100974.38;4159619;28;20238;-71
2022/10/10 04:22:25;;;;;;;37.00;16.50;;;;;;;4.28;100.00;100981.59;4176025;28;21842;-75
2022/10/10 04:24:52;;;;;;;37.57;17.10;;;;;;;4.33;100.00;100989.22;4160629;28;22936;-73
2022/10/10 04:27:18;;;;;;;37.47;16.23;;;;;;;4.35;100.00;100982.09;4145954;28;20237;-73
2022/10/10 04:29:45;;;;;;;36.37;16.07;;;;;;;4.28;100.00;100975.50;4157804;28;20241;-70
2022/10/10 04:32:11;;;;;;;36.43;16.60;;;;;;;4.46;100.00;100982.31;4177870;28;23279;-71
2022/10/10 04:34:38;;;;;;;37.50;15.97;;;;;;;4.44;100.00;100973.63;4154226;28;20457;-72
2022/10/10 04:37:04;;;;;;;36.50;15.10;;;;;;;4.47;100.00;100970.81;4163229;28;20235;-75
2022/10/10 04:39:31;;;;;;;33.07;14.67;;;;;;;4.50;100.00;100975.91;4163097;28;20240;-72
2022/10/10 04:41:57;;;;;;;39.33;15.63;;;;;;;4.51;100.00;100964.41;4151551;28;20241;-73
2022/10/10 04:44:24;;;;;;;39.57;15.33;;;;;;;4.49;100.00;100966.28;4164078;28;20234;-71
2022/10/10 04:46:50;;;;;;;36.97;14.50;;;;;;;4.50;100.00;100972.44;4152447;28;20332;-72
2022/10/10 04:49:17;;;;;;;29.07;14.23;;;;;;;4.46;100.00;100969.13;4154339;28;20255;-73
2022/10/10 04:51:44;;;;;;;30.30;14.87;;;;;;;4.40;100.00;100974.75;4161521;28;21814;-72
2022/10/10 04:54:10;;;;;;;30.53;13.93;;;;;;;4.52;100.00;100974.03;4161094;28;20714;-72
2022/10/10 04:56:37;;;;;;;31.50;15.43;;;;;;;4.37;100.00;100974.94;4158744;28;20233;-72
2022/10/10 04:59:05;;;;;;;35.33;15.33;;;;;;;4.44;100.00;100978.91;4166630;28;20237;-76
2022/10/10 05:01:32;;;;;;;34.87;15.03;;;;;;;4.45;100.00;100977.97;4155095;28;20277;-73
2022/10/10 05:03:58;;;;;;;30.57;14.90;;;;;;;4.40;100.00;100972.13;4160477;28;20260;-80
2022/10/10 05:06:25;;;;;;;30.60;14.73;;;;;;;4.53;100.00;100978.34;4183136;28;21665;-76
2022/10/10 05:08:52;;;;;;;28.37;14.13;;;;;;;4.48;100.00;100975.16;4201866;28;20580;-75
2022/10/10 05:11:18;;;;;;;39.17;15.83;;;;;;;4.46;100.00;100990.19;4198005;28;20286;-74
2022/10/10 05:13:45;;;;;;;34.00;14.17;;;;;;;4.45;100.00;100991.16;4212798;28;21747;-74
2022/10/10 05:16:12;;;;;;;30.93;15.00;;;;;;;4.39;100.00;100988.88;4186794;28;21706;-73
2022/10/10 05:18:39;;;;;;;36.37;15.13;;;;;;;4.32;100.00;100990.19;4180114;28;20416;-72
2022/10/10 05:21:06;;;;;;;33.20;14.13;;;;;;;4.25;100.00;100988.84;4178638;28;21369;-75
2022/10/10 05:23:33;;;;;;;28.50;15.00;;;;;;;4.10;100.00;100991.47;4178320;28;20471;-74
2022/10/10 05:26:00;;;;;;;34.27;14.97;;;;;;;4.03;100.00;100979.59;4180105;28;20237;-73
2022/10/10 05:28:26;;;;;;;33.53;13.83;;;;;;;4.00;100.00;100977.09;4176194;28;20250;-71
2022/10/10 05:30:53;;;;;;;34.60;14.97;;;;;;;3.99;100.00;100976.25;4173968;28;21137;-75
2022/10/10 05:33:20;;;;;;;31.43;15.60;;;;;;;4.04;100.00;100978.63;4176866;28;22386;-76
2022/10/10 05:35:47;;;;;;;32.43;15.33;;;;;;;4.09;100.00;100966.03;4175644;28;20238;-72
2022/10/10 05:38:13;;;;;;;30.90;14.60;;;;;;;4.09;100.00;100970.47;4165533;28;24975;-75
2022/10/10 05:40:41;;;;;;;34.57;15.30;;;;;;;4.01;100.00;100968.28;4171678;28;23724;-76
2022/10/10 05:43:07;;;;;;;31.23;14.33;;;;;;;4.06;100.00;100971.50;4185098;28;20264;-73
2022/10/10 05:45:34;;;;;;;32.23;15.23;;;;;;;4.05;100.00;100969.81;4168678;28;23054;-75
2022/10/10 05:48:01;;;;;;;31.63;14.97;;;;;;;4.07;100.00;100975.81;4176105;28;20234;-72
2022/10/10 05:50:34;;;;;;;34.73;15.33;;;;;;;4.03;100.00;100979.59;4185895;28;20289;-73
2022/10/10 05:53:00;;;;;;;32.53;15.37;;;;;;;4.12;100.00;100973.78;4167716;28;20875;-73
2022/10/10 05:55:28;;;;;;;33.23;16.10;;;;;;;4.13;100.00;100966.72;4168217;28;20290;-75
2022/10/10 05:57:55;;;;;;;33.17;15.80;;;;;;;4.23;100.00;100968.69;4201015;28;22228;-75
2022/10/10 06:00:22;;;;;;;34.43;16.33;;;;;;;4.32;100.00;100966.47;4175791;28;21137;-77
2022/10/10 06:02:48;;;;;;;34.93;15.47;;;;;;;4.39;100.00;100967.78;4185796;28;20322;-70
2022/10/10 06:05:16;;;;;;;38.47;17.07;;;;;;;4.40;100.00;100961.56;4198327;28;20243;-78
2022/10/10 06:07:42;;;;;;;36.10;15.33;;;;;;;4.42;100.00;100957.06;4189355;28;21712;-72
2022/10/10 06:10:29;;;;;;;35.43;16.70;;;;;;;4.46;100.00;100957.75;4184687;28;20482;-69
2022/10/10 06:12:56;;;;;;;35.93;16.17;;;;;;;4.57;100.00;100969.31;4191707;28;20247;-74
2022/10/10 06:15:22;;;;;;;40.47;16.70;;;;;;;4.70;100.00;100966.78;4219089;28;20253;-70
2022/10/10 06:17:49;;;;;;;32.77;15.57;;;;;;;4.81;100.00;100969.59;4182448;28;21943;-74
2022/10/10 06:20:16;;;;;;;37.00;16.83;;;;;;;4.80;100.00;100967.03;4208014;28;20264;-74
2022/10/10 06:22:42;;;;;;;31.20;16.17;;;;;;;4.97;100.00;100977.41;4174464;28;21619;-74
2022/10/10 06:25:09;;;;;;;38.40;15.13;;;;;;;5.05;100.00;100969.84;4181328;28;20391;-74
2022/10/10 06:27:56;;;;;;;32.20;15.80;;;;;;;5.10;100.00;100963.44;4178888;28;20237;-74
2022/10/10 06:30:22;;;;;;;30.97;15.53;;;;;;;5.13;100.00;100963.25;4172908;28;20636;-75
2022/10/10 06:32:49;;;;;;;36.00;16.30;;;;;;;5.25;100.00;100965.97;4182578;28;20239;-73
2022/10/10 06:35:21;;;;;;;33.40;17.43;;;;;;;5.43;100.00;100963.09;4157086;28;20451;-74
2022/10/10 06:37:48;;;;;;;36.97;17.43;;;;;;;5.55;100.00;100958.81;4172588;28;20250;-75
2022/10/10 06:40:16;;;;;;;36.00;16.90;;;;;;;5.66;100.00;100959.78;4189565;28;20297;-74
2022/10/10 06:42:42;;;;;;;41.47;17.27;;;;;;;5.68;100.00;100954.44;4206251;28;20236;-72
2022/10/10 06:45:09;;;;;;;38.13;17.00;;;;;;;5.75;100.00;100958.34;4188402;28;20273;-74
2022/10/10 06:47:36;;;;;;;39.03;18.00;;;;;;;5.80;100.00;100958.91;4172100;28;20325;-73
2022/10/10 06:50:06;;;;;;;34.23;16.27;;;;;;;6.01;100.00;100966.38;4162985;28;23248;-73
2022/10/10 06:52:35;;;;;;;35.13;17.13;;;;;;;6.00;100.00;100962.91;4165344;28;20250;-77
2022/10/10 06:55:07;;;;;;;33.83;16.63;;;;;;;6.06;100.00;100961.63;4162721;28;20234;-72
2022/10/10 06:57:34;;;;;;;33.77;16.97;;;;;;;6.06;100.00;100962.50;4164500;28;20286;-73
2022/10/10 07:00:01;;;;;;;39.27;17.20;;;;;;;6.21;100.00;100963.25;4167429;28;20292;-70
2022/10/10 07:02:28;;;;;;;36.77;16.23;;;;;;;6.13;100.00;100966.41;4176010;28;20393;-71
2022/10/10 07:04:55;;;;;;;33.17;17.03;;;;;;;6.23;100.00;100969.28;4171958;28;20375;-71
2022/10/10 07:07:21;;;;;;;32.53;15.93;;;;;;;6.23;100.00;100960.50;4203282;28;20601;-73
2022/10/10 07:09:48;;;;;;;33.87;16.63;;;;;;;6.33;100.00;100962.41;4163077;28;20285;-72
2022/10/10 07:12:14;;;;;;;34.40;16.43;;;;;;;6.42;100.00;100968.03;4185935;28;21645;-67
2022/10/10 07:14:41;;;;;;;35.90;17.23;;;;;;;6.48;100.00;100964.94;4173985;28;21159;-70
2022/10/10 07:17:07;;;;;;;30.87;16.93;;;;;;;6.54;100.00;100975.13;4154802;28;20514;-72
2022/10/10 07:19:36;;;;;;;38.00;17.10;;;;;;;6.58;100.00;100960.75;4181960;28;21759;-72
2022/10/10 07:22:03;;;;;;;32.30;17.40;;;;;;;6.87;100.00;100965.78;4169434;28;20234;-66
2022/10/10 07:24:30;;;;;;;33.10;16.50;;;;;;;7.35;100.00;100961.44;4199583;28;20310;-68
2022/10/10 07:26:57;;;;;;;32.73;14.93;;;;;;;8.09;95.74;100955.97;4186523;28;21822;-71
2022/10/10 07:29:33;;;;;;;32.37;13.30;;;;;;;10.92;79.37;100987.06;4145531;29;20235;-70
2022/10/10 07:31:59;;;;;;;27.43;12.70;;;;;;;12.57;69.83;100991.75;4220784;29;20329;-73
2022/10/10 07:34:26;;;;;;;22.00;11.03;;;;;;;14.50;57.94;101014.78;4189253;28;22429;-70
2022/10/10 07:36:53;;;;;;;22.93;11.83;;;;;;;16.72;50.78;101021.66;4192162;29;20235;-69
2022/10/10 07:39:23;;;;;;;22.07;10.60;;;;;;;17.69;45.71;101026.84;4174524;28;21808;-71
2022/10/10 07:41:50;;;;;;;17.97;9.63;;;;;;;18.41;41.91;101033.78;4196720;28;20362;-70
2022/10/10 07:44:18;;;;;;;20.33;8.80;;;;;;;19.80;39.81;101035.78;4209821;28;20296;-76
2022/10/10 07:46:45;;;;;;;21.30;9.90;;;;;;;20.64;35.67;101027.00;4178287;28;20253;-73
2022/10/10 07:49:12;;;;;;;15.30;9.27;;;;;;;20.80;35.34;101034.00;4204945;28;21876;-69
2022/10/10 07:51:40;;;;;;;24.23;9.80;;;;;;;20.00;36.51;101022.50;4198112;28;20267;-70
2022/10/10 07:54:08;;;;;;;23.23;9.00;;;;;;;19.35;37.03;101017.97;4214043;28;20319;-71
2022/10/10 07:56:34;;;;;;;14.67;8.83;;;;;;;20.41;35.71;101021.81;4210712;29;20242;-72
2022/10/10 07:59:01;;;;;;;21.40;9.27;;;;;;;21.40;33.54;101017.28;4217173;28;23384;-71
2022/10/10 08:01:29;;;;;;;15.10;8.70;;;;;;;20.52;34.35;101025.03;4203870;28;22311;-76
2022/10/10 08:03:56;;;;;;;13.93;8.67;;;;;;;20.43;34.93;101025.16;4241129;29;20454;-71
2022/10/10 08:06:23;;;;;;;16.37;9.33;;;;;;;20.39;35.08;101023.91;4220698;28;20362;-70
2022/10/10 08:08:49;;;;;;;14.53;9.17;;;;;;;20.65;35.10;101023.28;4223514;28;22070;-69
2022/10/10 08:11:20;;;;;;;18.80;9.27;;;;;;;21.32;33.72;101028.25;4235121;28;20239;-71
2022/10/10 08:13:47;;;;;;;16.33;9.27;;;;;;;22.12;32.10;101016.66;4166803;28;23491;-70
2022/10/10 08:16:14;;;;;;;15.80;7.83;;;;;;;21.72;32.26;101026.56;4212315;28;21497;-70
2022/10/10 08:18:41;;;;;;;14.53;7.73;;;;;;;20.76;33.76;101015.66;4183712;29;20284;-71
2022/10/10 08:21:10;;;;;;;15.30;7.30;;;;;;;20.98;33.87;101014.56;4201280;28;20933;-71
2022/10/10 08:23:37;;;;;;;15.27;8.73;;;;;;;22.11;32.25;101020.41;4185501;29;20409;-70
2022/10/10 08:26:06;;;;;;;18.17;8.30;;;;;;;23.33;29.84;101028.22;4195682;29;20252;-70
2022/10/10 08:28:33;;;;;;;13.27;8.13;;;;;;;23.08;30.28;101023.50;4210721;28;20450;-72
2022/10/10 08:31:07;;;;;;;20.67;8.20;;;;;;;22.60;30.50;101012.91;4262696;28;20256;-68
2022/10/10 08:33:34;;;;;;;18.47;8.33;;;;;;;22.62;31.06;101013.56;4219252;28;20282;-71
2022/10/10 08:36:09;;;;;;;14.43;7.77;;;;;;;23.43;29.71;101019.63;4178293;28;20235;-72
2022/10/10 08:38:36;;;;;;;13.37;8.20;;;;;;;24.53;27.87;101019.38;4219450;28;20294;-70
2022/10/10 08:41:34;;;;;;;14.03;7.57;;;;;;;23.40;28.92;101007.31;4198004;28;20413;-70
2022/10/10 08:44:09;;;;;;;13.67;7.70;;;;;;;21.67;32.05;100983.00;4205797;28;21933;-73
2022/10/10 08:46:49;;;;;;;10.67;7.07;;;;;;;19.12;36.41;100969.53;4226857;28;20249;-73
2022/10/10 08:49:28;;;;;;;14.60;7.57;;;;;;;15.90;45.03;100937.63;4239328;29;21271;-75
2022/10/10 08:52:03;;;;;;;17.17;7.80;;;;;;;14.57;50.77;100934.69;4218833;29;21748;-75
2022/10/10 08:54:31;;;;;;;12.67;7.13;;;;;;;13.84;54.68;100903.69;4221556;28;20243;-73
2022/10/10 08:56:59;;;;;;;16.40;6.80;;;;;;;13.59;56.30;100910.66;4212107;29;20232;-76
2022/10/10 08:59:31;;;;;;;14.20;7.67;;;;;;;13.37;57.64;100906.63;4242104;29;20231;-75
2022/10/10 09:02:28;;;;;;;14.10;7.37;;;;;;;13.23;59.61;100907.94;4237866;28;20941;-74
2022/10/10 09:05:25;;;;;;;19.23;7.50;;;;;;;13.47;58.98;100898.53;4231107;28;20252;-75
2022/10/10 09:08:09;;;;;;;13.23;6.70;;;;;;;13.82;58.33;100888.81;4175242;29;20235;-71
2022/10/10 09:10:42;;;;;;;14.37;6.93;;;;;;;13.57;58.82;100890.41;4200803;28;22593;-75
2022/10/10 09:13:27;;;;;;;18.50;6.43;;;;;;;13.71;58.71;100895.22;4213556;28;20243;-73
2022/10/10 09:16:00;;;;;;;17.47;6.70;;;;;;;13.81;58.12;100887.94;4177862;28;20224;-78
2022/10/10 09:18:38;;;;;;;13.60;6.17;;;;;;;13.55;58.48;100873.69;4219568;28;20236;-73
2022/10/10 09:21:16;;;;;;;15.17;5.27;;;;;;;13.56;57.94;100875.38;4199078;28;20337;-74
2022/10/10 09:23:52;;;;;;;9.17;4.70;;;;;;;13.70;57.54;100881.00;4185092;28;20251;-71
2022/10/10 09:26:23;;;;;;;11.90;5.57;;;;;;;13.63;57.67;100873.78;4240284;28;20349;-72
2022/10/10 09:29:21;;;;;;;9.83;5.03;;;;;;;13.23;58.57;100885.72;4209279;28;20239;-70
2022/10/10 09:31:53;;;;;;;11.70;5.23;;;;;;;13.04;59.98;100884.00;4198870;28;20234;-68
2022/10/10 09:34:32;;;;;;;16.33;5.83;;;;;;;12.85;61.34;100876.94;4150302;29;20240;-68
2022/10/10 09:37:01;;;;;;;9.73;4.90;;;;;;;12.96;60.62;100882.06;4215161;28;20239;-68
2022/10/10 09:39:35;;;;;;;10.63;4.93;;;;;;;12.77;60.87;100866.16;4210684;28;20653;-71
2022/10/10 09:42:09;;;;;;;15.07;5.40;;;;;;;12.79;61.85;100866.88;4149930;29;20235;-72
2022/10/10 09:44:37;;;;;;;10.50;5.40;;;;;;;12.93;62.71;100863.69;4191957;28;20286;-67
2022/10/10 09:47:04;;;;;;;8.50;4.53;;;;;;;12.94;61.24;100860.00;4183144;28;20239;-68
2022/10/10 09:49:30;;;;;;;10.53;5.23;;;;;;;12.83;62.09;100854.88;4169843;29;20241;-70
2022/10/10 09:51:57;;;;;;;8.93;4.50;;;;;;;12.83;62.17;100863.75;4157484;29;20247;-59
2022/10/10 09:54:24;;;;;;;10.30;4.70;;;;;;;12.71;62.04;100856.06;4175055;28;20323;-62
2022/10/10 09:56:56;;;;;;;13.47;5.20;;;;;;;12.81;63.13;100859.53;4180468;28;20821;-69
2022/10/10 09:59:45;;;;;;;7.07;4.30;;;;;;;12.94;62.52;100864.53;4193578;28;20609;-70
2022/10/10 10:02:14;;;;;;;11.50;4.77;;;;;;;12.91;63.12;100846.97;4169567;29;22260;-74
2022/10/10 10:04:40;;;;;;;13.50;4.90;;;;;;;13.04;62.98;100855.47;4195048;28;20290;-71
2022/10/10 10:07:18;;;;;;;11.20;4.50;;;;;;;13.11;62.40;100861.06;4189730;29;21427;-72
2022/10/10 10:09:48;;;;;;;7.50;4.47;;;;;;;13.05;61.69;100857.13;4170936;28;20243;-73
2022/10/10 10:12:18;;;;;;;6.60;4.27;;;;;;;12.86;61.83;100859.94;4168898;28;22046;-71
2022/10/10 10:14:45;;;;;;;7.50;4.10;;;;;;;12.76;62.03;100853.78;4164064;28;20308;-69
2022/10/10 10:17:17;;;;;;;9.63;3.70;;;;;;;12.94;61.15;100833.28;4193851;28;22320;-70
2022/10/10 10:19:45;;;;;;;6.33;3.07;;;;;;;13.20;58.33;100843.25;4185145;29;20273;-72
2022/10/10 10:22:34;;;;;;;7.20;2.97;;;;;;;12.96;59.57;100836.66;4165090;28;20268;-71
2022/10/10 10:25:36;;;;;;;9.00;3.30;;;;;;;13.06;58.60;100825.91;4194083;29;20235;-70
2022/10/10 10:28:14;;;;;;;6.40;3.30;;;;;;;12.97;59.07;100810.78;4217857;28;20379;-69
2022/10/10 10:30:42;;;;;;;8.43;3.53;;;;;;;13.17;60.83;100823.00;4154671;29;20240;-70
2022/10/10 10:33:26;;;;;;;8.03;2.90;;;;;;;13.46;57.83;100828.19;4169639;28;20265;-70
2022/10/10 10:35:58;;;;;;;6.70;2.50;;;;;;;13.39;55.75;100820.91;4183438;28;21907;-70
2022/10/10 10:38:41;;;;;;;6.53;2.43;;;;;;;13.34;57.10;100824.03;4192261;28;20297;-71
2022/10/10 10:41:34;;;;;;;10.70;2.90;;;;;;;13.52;56.10;100816.84;4145956;29;21186;-69
2022/10/10 10:44:04;;;;;;;7.60;2.47;;;;;;;13.54;55.82;100818.53;4163386;29;21298;-73
2022/10/10 10:46:43;;;;;;;6.20;2.40;;;;;;;13.69;54.22;100814.28;4179017;28;22365;-70
2022/10/10 10:49:14;;;;;;;3.30;1.70;;;;;;;13.58;54.06;100811.88;4159946;28;23364;-71
2022/10/10 10:51:59;;;;;;;6.53;2.03;;;;;;;13.45;52.91;100810.44;4190993;28;21267;-64
2022/10/10 10:54:44;;;;;;;4.47;2.03;;;;;;;13.46;54.93;100812.13;4171291;28;20449;-64
2022/10/10 10:57:29;;;;;;;4.00;2.03;;;;;;;13.54;54.87;100797.97;4192528;28;20282;-63
2022/10/10 11:00:19;;;;;;;3.17;1.90;;;;;;;13.70;53.63;100790.06;4174219;29;20242;-68
2022/10/10 11:03:14;;;;;;;9.30;2.30;;;;;;;13.79;53.50;100790.97;4185699;28;20400;-65
2022/10/10 11:06:10;;;;;;;11.27;2.20;;;;;;;13.79;53.55;100796.31;4168813;28;20612;-68
2022/10/10 11:08:46;;;;;;;7.13;2.93;;;;;;;13.88;55.52;100790.03;4164416;29;21748;-69
2022/10/10 11:11:28;;;;;;;6.37;2.50;;;;;;;13.83;55.95;100792.31;4169118;29;20392;-71
2022/10/10 11:14:15;;;;;;;3.50;1.90;;;;;;;13.80;55.36;100791.81;4168427;29;20270;-70
2022/10/10 11:16:46;;;;;;;4.10;2.20;;;;;;;13.87;54.40;100783.00;4179305;28;20808;-68
2022/10/10 11:19:44;;;;;;;4.40;2.50;;;;;;;13.94;54.91;100789.38;4183247;28;20546;-70
2022/10/10 11:22:18;;;;;;;4.53;1.90;;;;;;;14.03;52.43;100786.78;4183092;28;25729;-68
2022/10/10 11:24:51;;;;;;;3.43;2.30;;;;;;;14.06;51.84;100779.25;4170193;28;20296;-69
2022/10/10 11:27:23;;;;;;;3.17;1.97;;;;;;;14.09;50.31;100780.75;4187038;28;20863;-67
2022/10/10 11:30:14;;;;;;;3.93;2.20;;;;;;;13.98;51.61;100773.00;4162880;28;20380;-66